sensor_id;sensor_type;location;lat;lon;timestamp;pressure;altitude;pressure_sealevel;temperature;humidity
79230;BME280;68663;49.122;17.544;2023-04-03T00:00:21;99722.31;;;22.69;51.43
79230;BME280;68663;49.122;17.544;2023-04-03T00:02:46;99731.97;;;22.72;51.40
79230;BME280;68663;49.122;17.544;2023-04-03T00:05:11;99721.50;;;22.69;51.68
79230;BME280;68663;49.122;17.544;2023-04-03T00:07:36;99726.75;;;22.67;51.80
79230;BME280;68663;49.122;17.544;2023-04-03T00:10:02;99719.53;;;22.62;51.99
79230;BME280;68663;49.122;17.544;2023-04-03T00:12:27;99725.97;;;22.63;51.94
79230;BME280;68663;49.122;17.544;2023-04-03T00:14:52;99722.34;;;22.62;51.80
79230;BME280;68663;49.122;17.544;2023-04-03T00:17:18;99723.94;;;22.67;51.42
79230;BME280;68663;49.122;17.544;2023-04-03T00:19:43;99721.50;;;22.69;51.62
79230;BME280;68663;49.122;17.544;2023-04-03T00:22:08;99723.91;;;22.74;51.64
79230;BME280;68663;49.122;17.544;2023-04-03T00:24:33;99723.09;;;22.73;51.47
79230;BME280;68663;49.122;17.544;2023-04-03T00:26:59;99723.06;;;22.77;51.31
79230;BME280;68663;49.122;17.544;2023-04-03T00:29:24;99715.03;;;22.75;51.44
79230;BME280;68663;49.122;17.544;2023-04-03T00:31:49;99721.50;;;22.72;51.60
79230;BME280;68663;49.122;17.544;2023-04-03T00:34:15;99714.66;;;22.70;51.92
79230;BME280;68663;49.122;17.544;2023-04-03T00:36:40;99705.44;;;22.66;51.87
79230;BME280;68663;49.122;17.544;2023-04-03T00:39:05;99717.91;;;22.65;52.35
79230;BME280;68663;49.122;17.544;2023-04-03T00:41:31;99709.06;;;22.63;52.47
79230;BME280;68663;49.122;17.544;2023-04-03T00:43:57;99709.47;;;22.65;52.12
79230;BME280;68663;49.122;17.544;2023-04-03T00:46:22;99700.19;;;22.68;51.77
79230;BME280;68663;49.122;17.544;2023-04-03T00:48:48;99702.19;;;22.71;51.44
79230;BME280;68663;49.122;17.544;2023-04-03T00:51:14;99695.31;;;22.72;51.71
79230;BME280;68663;49.122;17.544;2023-04-03T00:53:46;99709.44;;;22.68;51.54
79230;BME280;68663;49.122;17.544;2023-04-03T00:56:13;99702.22;;;22.64;51.94
79230;BME280;68663;49.122;17.544;2023-04-03T00:58:40;99705.44;;;22.66;51.85
79230;BME280;68663;49.122;17.544;2023-04-03T01:01:06;99698.97;;;22.69;51.58
79230;BME280;68663;49.122;17.544;2023-04-03T01:03:33;99703.81;;;22.68;51.88
79230;BME280;68663;49.122;17.544;2023-04-03T01:05:58;99699.00;;;22.65;51.98
79230;BME280;68663;49.122;17.544;2023-04-03T01:08:24;99693.38;;;22.62;52.18
79230;BME280;68663;49.122;17.544;2023-04-03T01:10:49;99699.84;;;22.59;52.25
79230;BME280;68663;49.122;17.544;2023-04-03T01:13:25;99696.59;;;22.60;51.98
79230;BME280;68663;49.122;17.544;2023-04-03T01:15:51;99690.94;;;22.64;51.70
79230;BME280;68663;49.122;17.544;2023-04-03T01:18:16;99695.75;;;22.67;51.66
79230;BME280;68663;49.122;17.544;2023-04-03T01:20:49;99684.88;;;22.69;51.58
79230;BME280;68663;49.122;17.544;2023-04-03T01:23:23;99692.50;;;22.72;51.57
79230;BME280;68663;49.122;17.544;2023-04-03T01:25:54;99692.50;;;22.72;51.50
79230;BME280;68663;49.122;17.544;2023-04-03T01:28:25;99697.31;;;22.75;51.31
79230;BME280;68663;49.122;17.544;2023-04-03T01:33:45;99702.59;;;22.69;51.70
79230;BME280;68663;49.122;17.544;2023-04-03T01:36:13;99708.63;;;22.68;51.83
79230;BME280;68663;49.122;17.544;2023-04-03T01:38:39;99695.75;;;22.67;51.82
79230;BME280;68663;49.122;17.544;2023-04-03T01:41:04;99706.22;;;22.66;51.81
79230;BME280;68663;49.122;17.544;2023-04-03T01:43:29;99716.69;;;22.69;51.40
79230;BME280;68663;49.122;17.544;2023-04-03T01:45:55;99703.78;;;22.72;51.32
79230;BME280;68663;49.122;17.544;2023-04-03T01:48:20;99704.16;;;22.74;51.26
79230;BME280;68663;49.122;17.544;2023-04-03T01:50:46;99693.28;;;22.76;51.33
79230;BME280;68663;49.122;17.544;2023-04-03T01:53:11;99695.72;;;22.74;51.74
79230;BME280;68663;49.122;17.544;2023-04-03T01:55:36;99703.78;;;22.72;51.45
79230;BME280;68663;49.122;17.544;2023-04-03T01:58:02;99703.38;;;22.70;51.67
79230;BME280;68663;49.122;17.544;2023-04-03T02:03:30;99694.09;;;22.73;51.39
79230;BME280;68663;49.122;17.544;2023-04-03T02:05:55;99707.81;;;22.71;51.87
79230;BME280;68663;49.122;17.544;2023-04-03T02:08:21;99712.66;;;22.67;51.92
79230;BME280;68663;49.122;17.544;2023-04-03T02:10:47;99714.72;;;22.63;51.93
79230;BME280;68663;49.122;17.544;2023-04-03T02:13:12;99715.91;;;22.62;51.72
79230;BME280;68663;49.122;17.544;2023-04-03T02:15:38;99710.25;;;22.65;51.56
79230;BME280;68663;49.122;17.544;2023-04-03T02:18:03;99714.28;;;22.68;51.28
79230;BME280;68663;49.122;17.544;2023-04-03T02:20:28;99713.06;;;22.69;51.44
79230;BME280;68663;49.122;17.544;2023-04-03T02:22:54;99710.22;;;22.72;51.38
79230;BME280;68663;49.122;17.544;2023-04-03T02:25:19;99706.97;;;22.74;51.39
79230;BME280;68663;49.122;17.544;2023-04-03T02:27:45;99719.88;;;22.75;51.25
79230;BME280;68663;49.122;17.544;2023-04-03T02:30:10;99711.81;;;22.77;51.30
79230;BME280;68663;49.122;17.544;2023-04-03T02:32:36;99716.22;;;22.78;51.36
79230;BME280;68663;49.122;17.544;2023-04-03T02:35:01;99728.72;;;22.77;51.29
79230;BME280;68663;49.122;17.544;2023-04-03T02:37:26;99718.25;;;22.74;51.52
79230;BME280;68663;49.122;17.544;2023-04-03T02:39:52;99719.88;;;22.71;51.57
79230;BME280;68663;49.122;17.544;2023-04-03T02:42:17;99727.16;;;22.69;51.66
79230;BME280;68663;49.122;17.544;2023-04-03T02:44:42;99724.34;;;22.69;51.82
79230;BME280;68663;49.122;17.544;2023-04-03T02:47:08;99722.31;;;22.69;51.71
79230;BME280;68663;49.122;17.544;2023-04-03T02:49:33;99718.28;;;22.70;51.44
79230;BME280;68663;49.122;17.544;2023-04-03T02:51:58;99723.50;;;22.72;51.27
79230;BME280;68663;49.122;17.544;2023-04-03T02:54:23;99733.16;;;22.74;51.38
79230;BME280;68663;49.122;17.544;2023-04-03T02:56:52;99727.09;;;22.76;51.35
79230;BME280;68663;49.122;17.544;2023-04-03T02:59:18;99716.22;;;22.78;51.21
79230;BME280;68663;49.122;17.544;2023-04-03T03:01:43;99718.25;;;22.77;51.16
79230;BME280;68663;49.122;17.544;2023-04-03T03:04:08;99725.47;;;22.78;51.30
79230;BME280;68663;49.122;17.544;2023-04-03T03:06:33;99714.22;;;22.78;51.12
79230;BME280;68663;49.122;17.544;2023-04-03T03:08:59;99725.09;;;22.76;51.58
79230;BME280;68663;49.122;17.544;2023-04-03T03:11:24;99723.50;;;22.72;51.59
79230;BME280;68663;49.122;17.544;2023-04-03T03:13:50;99720.72;;;22.68;51.74
79230;BME280;68663;49.122;17.544;2023-04-03T03:16:15;99729.97;;;22.69;51.61
79230;BME280;68663;49.122;17.544;2023-04-03T03:18:41;99727.16;;;22.69;51.43
79230;BME280;68663;49.122;17.544;2023-04-03T03:21:06;99733.59;;;22.69;51.44
79230;BME280;68663;49.122;17.544;2023-04-03T03:23:32;99743.25;;;22.72;51.29
79230;BME280;68663;49.122;17.544;2023-04-03T03:26:02;99729.53;;;22.74;51.18
79230;BME280;68663;49.122;17.544;2023-04-03T03:28:27;99733.97;;;22.75;51.10
79230;BME280;68663;49.122;17.544;2023-04-03T03:30:53;99740.81;;;22.74;51.59
79230;BME280;68663;49.122;17.544;2023-04-03T03:33:18;99734.38;;;22.70;51.56
79230;BME280;68663;49.122;17.544;2023-04-03T03:35:43;99738.00;;;22.70;51.55
79230;BME280;68663;49.122;17.544;2023-04-03T03:38:09;99742.81;;;22.73;51.57
79230;BME280;68663;49.122;17.544;2023-04-03T03:40:34;99745.66;;;22.73;51.49
79230;BME280;68663;49.122;17.544;2023-04-03T03:43:00;99747.28;;;22.71;51.70
79230;BME280;68663;49.122;17.544;2023-04-03T03:45:25;99749.72;;;22.65;51.88
79230;BME280;68663;49.122;17.544;2023-04-03T03:47:50;99754.16;;;22.63;51.87
79230;BME280;68663;49.122;17.544;2023-04-03T03:50:16;99755.38;;;22.62;52.07
79230;BME280;68663;49.122;17.544;2023-04-03T03:52:41;99753.75;;;22.64;52.06
79230;BME280;68663;49.122;17.544;2023-04-03T03:55:06;99766.22;;;22.67;51.91
79230;BME280;68663;49.122;17.544;2023-04-03T03:57:32;99775.88;;;22.69;51.94
79230;BME280;68663;49.122;17.544;2023-04-03T03:59:57;99769.03;;;22.70;52.01
79230;BME280;68663;49.122;17.544;2023-04-03T04:02:22;99770.22;;;22.69;52.08
79230;BME280;68663;49.122;17.544;2023-04-03T04:04:48;99781.09;;;22.71;51.96
79230;BME280;68663;49.122;17.544;2023-04-03T04:07:13;99775.47;;;22.71;52.01
79230;BME280;68663;49.122;17.544;2023-04-03T04:09:38;99783.53;;;22.69;52.14
79230;BME280;68663;49.122;17.544;2023-04-03T04:12:04;99785.16;;;22.66;52.13
79230;BME280;68663;49.122;17.544;2023-04-03T04:14:29;99783.53;;;22.65;52.19
79230;BME280;68663;49.122;17.544;2023-04-03T04:16:54;99786.78;;;22.64;52.38
79230;BME280;68663;49.122;17.544;2023-04-03T04:19:20;99794.81;;;22.65;52.59
79230;BME280;68663;49.122;17.544;2023-04-03T04:21:45;99796.41;;;22.66;52.31
79230;BME280;68663;49.122;17.544;2023-04-03T04:24:11;99790.78;;;22.66;52.32
79230;BME280;68663;49.122;17.544;2023-04-03T04:26:36;99800.44;;;22.69;52.29
79230;BME280;68663;49.122;17.544;2023-04-03T04:29:01;99798.00;;;22.71;52.34
79230;BME280;68663;49.122;17.544;2023-04-03T04:31:26;99803.25;;;22.69;52.49
79230;BME280;68663;49.122;17.544;2023-04-03T04:33:52;99807.69;;;22.66;52.69
79230;BME280;68663;49.122;17.544;2023-04-03T04:36:17;99810.13;;;22.64;52.80
79230;BME280;68663;49.122;17.544;2023-04-03T04:38:43;99815.34;;;22.66;53.27
79230;BME280;68663;49.122;17.544;2023-04-03T04:41:08;99815.75;;;22.64;53.20
79230;BME280;68663;49.122;17.544;2023-04-03T04:43:33;99818.19;;;22.62;53.30
79230;BME280;68663;49.122;17.544;2023-04-03T04:46:03;99834.69;;;22.60;53.62
79230;BME280;68663;49.122;17.544;2023-04-03T04:48:28;99832.69;;;22.57;53.64
79230;BME280;68663;49.122;17.544;2023-04-03T04:50:54;99832.28;;;22.59;53.01
79230;BME280;68663;49.122;17.544;2023-04-03T04:53:19;99833.88;;;22.60;52.94
79230;BME280;68663;49.122;17.544;2023-04-03T04:55:45;99834.28;;;22.62;52.88
79230;BME280;68663;49.122;17.544;2023-04-03T04:58:10;99830.25;;;22.63;52.91
79230;BME280;68663;49.122;17.544;2023-04-03T05:00:35;99832.66;;;22.64;52.82
79230;BME280;68663;49.122;17.544;2023-04-03T05:03:00;99835.06;;;22.66;52.65
79230;BME280;68663;49.122;17.544;2023-04-03T05:08:28;99845.94;;;22.67;52.43
79230;BME280;68663;49.122;17.544;2023-04-03T05:10:54;99856.81;;;22.65;52.54
79230;BME280;68663;49.122;17.544;2023-04-03T05:13:20;99849.19;;;22.62;52.61
79230;BME280;68663;49.122;17.544;2023-04-03T05:15:45;99860.88;;;22.61;52.52
79230;BME280;68663;49.122;17.544;2023-04-03T05:18:11;99854.84;;;22.59;52.65
79230;BME280;68663;49.122;17.544;2023-04-03T05:20:36;99867.31;;;22.58;52.46
79230;BME280;68663;49.122;17.544;2023-04-03T05:23:02;99863.28;;;22.59;52.38
79230;BME280;68663;49.122;17.544;2023-04-03T05:25:27;99868.09;;;22.62;52.20
79230;BME280;68663;49.122;17.544;2023-04-03T05:27:52;99872.13;;;22.61;52.19
79230;BME280;68663;49.122;17.544;2023-04-03T05:30:18;99867.31;;;22.61;52.10
79230;BME280;68663;49.122;17.544;2023-04-03T05:32:43;99873.75;;;22.62;52.22
79230;BME280;68663;49.122;17.544;2023-04-03T05:35:09;99879.38;;;22.62;52.17
79230;BME280;68663;49.122;17.544;2023-04-03T05:37:34;99875.34;;;22.63;51.97
79230;BME280;68663;49.122;17.544;2023-04-03T05:39:59;99870.50;;;22.63;51.85
79230;BME280;68663;49.122;17.544;2023-04-03T05:42:25;99876.97;;;22.64;51.92
79230;BME280;68663;49.122;17.544;2023-04-03T05:44:50;99873.75;;;22.62;51.90
79230;BME280;68663;49.122;17.544;2023-04-03T05:47:16;99878.97;;;22.60;51.97
79230;BME280;68663;49.122;17.544;2023-04-03T05:49:41;99887.44;;;22.56;52.11
79230;BME280;68663;49.122;17.544;2023-04-03T05:54:50;99889.03;;;22.61;51.79
79230;BME280;68663;49.122;17.544;2023-04-03T05:57:15;99893.47;;;22.62;51.78
79230;BME280;68663;49.122;17.544;2023-04-03T05:59:41;99896.28;;;22.62;51.71
79230;BME280;68663;49.122;17.544;2023-04-03T06:02:07;99893.06;;;22.63;51.68
79230;BME280;68663;49.122;17.544;2023-04-03T06:04:32;99889.03;;;22.64;51.52
79230;BME280;68663;49.122;17.544;2023-04-03T06:06:57;99894.66;;;22.64;51.73
79230;BME280;68663;49.122;17.544;2023-04-03T06:09:24;99899.91;;;22.66;51.46
79230;BME280;68663;49.122;17.544;2023-04-03T06:11:50;99898.28;;;22.65;51.58
79230;BME280;68663;49.122;17.544;2023-04-03T06:14:16;99901.94;;;22.62;51.69
79230;BME280;68663;49.122;17.544;2023-04-03T06:16:42;99901.53;;;22.56;51.59
79230;BME280;68663;49.122;17.544;2023-04-03T06:19:08;99908.75;;;22.53;51.70
79230;BME280;68663;49.122;17.544;2023-04-03T06:21:34;99905.94;;;22.53;51.86
79230;BME280;68663;49.122;17.544;2023-04-03T06:24:01;99906.75;;;22.54;51.65
79230;BME280;68663;49.122;17.544;2023-04-03T06:26:27;99913.63;;;22.56;51.49
79230;BME280;68663;49.122;17.544;2023-04-03T06:28:52;99913.63;;;22.56;51.54
79230;BME280;68663;49.122;17.544;2023-04-03T06:31:17;99920.44;;;22.59;51.47
79230;BME280;68663;49.122;17.544;2023-04-03T06:33:42;99921.25;;;22.60;51.45
79230;BME280;68663;49.122;17.544;2023-04-03T06:36:09;99933.72;;;22.62;51.41
79230;BME280;68663;49.122;17.544;2023-04-03T06:38:35;99925.28;;;22.62;51.43
79230;BME280;68663;49.122;17.544;2023-04-03T06:41:00;99924.47;;;22.62;51.17
79230;BME280;68663;49.122;17.544;2023-04-03T06:43:25;99938.97;;;22.60;51.42
79230;BME280;68663;49.122;17.544;2023-04-03T06:45:51;99930.91;;;22.59;51.50
79230;BME280;68663;49.122;17.544;2023-04-03T06:48:17;99931.72;;;22.59;51.40
79230;BME280;68663;49.122;17.544;2023-04-03T06:50:42;99945.41;;;22.61;51.41
79230;BME280;68663;49.122;17.544;2023-04-03T06:53:07;99938.16;;;22.60;51.36
79230;BME280;68663;49.122;17.544;2023-04-03T06:55:33;99940.16;;;22.63;51.10
79230;BME280;68663;49.122;17.544;2023-04-03T06:57:58;99945.00;;;22.66;51.05
79230;BME280;68663;49.122;17.544;2023-04-03T07:00:24;99936.53;;;22.69;50.84
79230;BME280;68663;49.122;17.544;2023-04-03T07:02:49;99940.97;;;22.70;50.72
79230;BME280;68663;49.122;17.544;2023-04-03T07:05:15;99930.50;;;22.64;50.94
79230;BME280;68663;49.122;17.544;2023-04-03T07:07:40;99943.00;;;22.59;51.09
79230;BME280;68663;49.122;17.544;2023-04-03T07:10:06;99951.03;;;22.61;51.20
79230;BME280;68663;49.122;17.544;2023-04-03T07:12:32;99945.00;;;22.66;51.06
79230;BME280;68663;49.122;17.544;2023-04-03T07:14:57;99948.59;;;22.70;50.73
79230;BME280;68663;49.122;17.544;2023-04-03T07:17:23;99945.78;;;22.73;50.63
79230;BME280;68663;49.122;17.544;2023-04-03T07:19:48;99955.06;;;22.70;50.64
79230;BME280;68663;49.122;17.544;2023-04-03T07:22:14;99964.72;;;22.66;50.86
79230;BME280;68663;49.122;17.544;2023-04-03T07:24:39;99967.16;;;22.64;50.97
79230;BME280;68663;49.122;17.544;2023-04-03T07:27:05;99970.38;;;22.66;50.95
79230;BME280;68663;49.122;17.544;2023-04-03T07:29:30;99965.13;;;22.64;50.98
79230;BME280;68663;49.122;17.544;2023-04-03T07:31:56;99972.38;;;22.65;50.90
79230;BME280;68663;49.122;17.544;2023-04-03T07:34:21;99981.63;;;22.66;50.79
79230;BME280;68663;49.122;17.544;2023-04-03T07:36:46;99976.81;;;22.66;50.88
79230;BME280;68663;49.122;17.544;2023-04-03T07:39:12;99965.94;;;22.68;50.75
79230;BME280;68663;49.122;17.544;2023-04-03T07:41:37;99977.19;;;22.68;50.79
79230;BME280;68663;49.122;17.544;2023-04-03T07:44:03;99973.19;;;22.66;50.81
79230;BME280;68663;49.122;17.544;2023-04-03T07:46:29;99978.41;;;22.64;50.94
79230;BME280;68663;49.122;17.544;2023-04-03T07:48:55;99967.94;;;22.64;50.86
79230;BME280;68663;49.122;17.544;2023-04-03T07:51:20;99976.81;;;22.63;50.75
79230;BME280;68663;49.122;17.544;2023-04-03T07:53:45;99983.25;;;22.63;50.73
79230;BME280;68663;49.122;17.544;2023-04-03T07:56:11;99971.97;;;22.67;50.66
79230;BME280;68663;49.122;17.544;2023-04-03T07:58:36;99972.38;;;22.69;50.63
79230;BME280;68663;49.122;17.544;2023-04-03T08:01:02;99973.16;;;22.69;50.44
79230;BME280;68663;49.122;17.544;2023-04-03T08:03:27;99972.75;;;22.71;50.61
79230;BME280;68663;49.122;17.544;2023-04-03T08:05:52;99971.16;;;22.73;50.57
79230;BME280;68663;49.122;17.544;2023-04-03T08:08:22;99957.44;;;22.75;50.39
79230;BME280;68663;49.122;17.544;2023-04-03T08:10:48;99962.28;;;22.75;50.58
79230;BME280;68663;49.122;17.544;2023-04-03T08:13:13;99971.16;;;22.73;50.65
79230;BME280;68663;49.122;17.544;2023-04-03T08:15:38;99964.72;;;22.73;50.68
79230;BME280;68663;49.122;17.544;2023-04-03T08:18:04;99963.50;;;22.74;50.73
79230;BME280;68663;49.122;17.544;2023-04-03T08:20:29;99970.34;;;22.73;50.65
79230;BME280;68663;49.122;17.544;2023-04-03T08:22:54;99962.28;;;22.75;50.45
79230;BME280;68663;49.122;17.544;2023-04-03T08:25:20;99962.28;;;22.75;50.45
79230;BME280;68663;49.122;17.544;2023-04-03T08:27:45;99967.13;;;22.78;50.31
79230;BME280;68663;49.122;17.544;2023-04-03T08:30:11;99953.00;;;22.78;50.19
79230;BME280;68663;49.122;17.544;2023-04-03T08:32:36;99960.69;;;22.74;50.56
79230;BME280;68663;49.122;17.544;2023-04-03T08:35:02;99972.75;;;22.71;50.61
79230;BME280;68663;49.122;17.544;2023-04-03T08:37:27;99975.59;;;22.71;50.49
79230;BME280;68663;49.122;17.544;2023-04-03T08:39:53;99982.44;;;22.70;50.86
79230;BME280;68663;49.122;17.544;2023-04-03T08:48:08;99983.66;;;22.69;50.43
79230;BME280;68663;49.122;17.544;2023-04-03T08:50:40;99981.63;;;22.69;50.27
79230;BME280;68663;49.122;17.544;2023-04-03T08:53:11;99995.31;;;22.67;50.29
79230;BME280;68663;49.122;17.544;2023-04-03T08:55:45;99999.34;;;22.63;50.35
79230;BME280;68663;49.122;17.544;2023-04-03T09:03:13;100002.97;;;22.67;50.47
79230;BME280;68663;49.122;17.544;2023-04-03T09:10:37;100004.97;;;22.70;50.24
79230;BME280;68663;49.122;17.544;2023-04-03T09:13:18;100003.38;;;22.69;50.22
79230;BME280;68663;49.122;17.544;2023-04-03T09:15:46;100004.19;;;22.66;50.32
79230;BME280;68663;49.122;17.544;2023-04-03T09:23:20;100017.06;;;22.70;50.27
79230;BME280;68663;49.122;17.544;2023-04-03T09:25:47;100013.84;;;22.72;50.17
79230;BME280;68663;49.122;17.544;2023-04-03T09:28:13;100006.59;;;22.74;50.00
79230;BME280;68663;49.122;17.544;2023-04-03T09:30:38;99996.13;;;22.71;50.15
79230;BME280;68663;49.122;17.544;2023-04-03T09:33:04;100005.38;;;22.72;50.34
79230;BME280;68663;49.122;17.544;2023-04-03T09:35:31;100011.84;;;22.69;50.23
79230;BME280;68663;49.122;17.544;2023-04-03T09:37:58;100005.78;;;22.67;50.24
79230;BME280;68663;49.122;17.544;2023-04-03T09:42:50;100006.19;;;22.69;49.98
79230;BME280;68663;49.122;17.544;2023-04-03T09:45:29;100013.03;;;22.68;50.17
79230;BME280;68663;49.122;17.544;2023-04-03T09:51:00;100007.41;;;22.64;50.25
79230;BME280;68663;49.122;17.544;2023-04-03T09:53:34;100015.06;;;22.64;50.26
79230;BME280;68663;49.122;17.544;2023-04-03T09:56:01;100019.88;;;22.67;50.11
79230;BME280;68663;49.122;17.544;2023-04-03T09:58:37;100017.88;;;22.71;50.07
79230;BME280;68663;49.122;17.544;2023-04-03T10:01:03;99996.94;;;22.72;49.87
79230;BME280;68663;49.122;17.544;2023-04-03T10:03:33;100013.03;;;22.75;50.03
79230;BME280;68663;49.122;17.544;2023-04-03T10:06:00;100001.75;;;22.75;49.84
79230;BME280;68663;49.122;17.544;2023-04-03T10:08:33;100014.25;;;22.74;49.98
79230;BME280;68663;49.122;17.544;2023-04-03T10:11:17;100015.84;;;22.75;49.93
79230;BME280;68663;49.122;17.544;2023-04-03T10:16:40;100009.41;;;22.67;50.30
79230;BME280;68663;49.122;17.544;2023-04-03T10:21:48;100010.63;;;22.59;50.33
79230;BME280;68663;49.122;17.544;2023-04-03T10:29:25;100008.22;;;22.61;49.98
79230;BME280;68663;49.122;17.544;2023-04-03T10:41:50;100009.81;;;22.66;50.07
79230;BME280;68663;49.122;17.544;2023-04-03T10:44:24;100004.19;;;22.66;50.05
79230;BME280;68663;49.122;17.544;2023-04-03T10:47:06;100005.00;;;22.66;50.05
79230;BME280;68663;49.122;17.544;2023-04-03T10:52:09;100010.22;;;22.64;50.23
79230;BME280;68663;49.122;17.544;2023-04-03T10:54:37;100000.97;;;22.64;50.16
79230;BME280;68663;49.122;17.544;2023-04-03T10:57:05;100002.56;;;22.65;50.07
79230;BME280;68663;49.122;17.544;2023-04-03T10:59:50;99996.94;;;22.65;50.12
79230;BME280;68663;49.122;17.544;2023-04-03T11:02:25;99990.91;;;22.63;50.11
79230;BME280;68663;49.122;17.544;2023-04-03T11:04:52;99989.69;;;22.64;50.02
79230;BME280;68663;49.122;17.544;2023-04-03T11:07:20;99991.72;;;22.63;49.86
79230;BME280;68663;49.122;17.544;2023-04-03T11:09:48;99988.47;;;22.65;49.84
79230;BME280;68663;49.122;17.544;2023-04-03T11:14:46;99992.13;;;22.62;49.92
79230;BME280;68663;49.122;17.544;2023-04-03T11:22:32;99989.69;;;22.60;50.04
79230;BME280;68663;49.122;17.544;2023-04-03T11:27:40;99985.66;;;22.65;49.90
79230;BME280;68663;49.122;17.544;2023-04-03T11:30:09;99972.78;;;22.64;50.02
79230;BME280;68663;49.122;17.544;2023-04-03T11:35:14;99977.22;;;22.65;49.96
79230;BME280;68663;49.122;17.544;2023-04-03T11:37:50;99968.34;;;22.63;49.94
79230;BME280;68663;49.122;17.544;2023-04-03T11:40:26;99969.97;;;22.64;49.87
79230;BME280;68663;49.122;17.544;2023-04-03T11:42:55;99963.91;;;22.69;49.76
79230;BME280;68663;49.122;17.544;2023-04-03T11:45:35;99955.47;;;22.69;49.59
79230;BME280;68663;49.122;17.544;2023-04-03T11:58:24;99947.41;;;22.64;49.80
79230;BME280;68663;49.122;17.544;2023-04-03T12:05:50;99942.19;;;22.66;49.81
79230;BME280;68663;49.122;17.544;2023-04-03T12:08:21;99947.81;;;22.66;49.82
79230;BME280;68663;49.122;17.544;2023-04-03T12:13:33;99944.59;;;22.64;49.83
79230;BME280;68663;49.122;17.544;2023-04-03T12:15:58;99930.09;;;22.65;49.61
79230;BME280;68663;49.122;17.544;2023-04-03T12:18:44;99936.13;;;22.67;49.74
79230;BME280;68663;49.122;17.544;2023-04-03T12:21:22;99923.66;;;22.68;49.45
79230;BME280;68663;49.122;17.544;2023-04-03T12:29:01;99930.88;;;22.76;49.57
79230;BME280;68663;49.122;17.544;2023-04-03T12:31:32;99923.22;;;22.77;49.54
79230;BME280;68663;49.122;17.544;2023-04-03T12:34:12;99933.28;;;22.74;49.51
79230;BME280;68663;49.122;17.544;2023-04-03T12:36:50;99922.03;;;22.71;49.83
79230;BME280;68663;49.122;17.544;2023-04-03T12:44:37;99935.72;;;22.69;49.64
79230;BME280;68663;49.122;17.544;2023-04-03T12:47:07;99922.03;;;22.71;49.88
79230;BME280;68663;49.122;17.544;2023-04-03T12:49:39;99922.44;;;22.73;49.79
79230;BME280;68663;49.122;17.544;2023-04-03T12:52:40;99905.91;;;22.71;49.83
79230;BME280;68663;49.122;17.544;2023-04-03T12:54:58;99923.25;;;22.70;49.86
79230;BME280;68663;49.122;17.544;2023-04-03T12:57:27;99927.28;;;22.69;50.04
79230;BME280;68663;49.122;17.544;2023-04-03T12:59:52;99925.25;;;22.69;50.02
79230;BME280;68663;49.122;17.544;2023-04-03T13:04:52;99920.81;;;22.72;49.90
79230;BME280;68663;49.122;17.544;2023-04-03T13:07:26;99927.66;;;22.74;49.97
79230;BME280;68663;49.122;17.544;2023-04-03T13:12:32;99926.44;;;22.79;49.89
79230;BME280;68663;49.122;17.544;2023-04-03T13:15:01;99925.63;;;22.78;50.10
79230;BME280;68663;49.122;17.544;2023-04-03T13:17:29;99914.75;;;22.77;50.20
79230;BME280;68663;49.122;17.544;2023-04-03T13:19:55;99922.81;;;22.75;50.03
79230;BME280;68663;49.122;17.544;2023-04-03T13:22:36;99933.28;;;22.78;49.88
79230;BME280;68663;49.122;17.544;2023-04-03T13:25:11;99936.13;;;22.81;50.01
79230;BME280;68663;49.122;17.544;2023-04-03T13:27:38;99917.19;;;22.82;49.96
79230;BME280;68663;49.122;17.544;2023-04-03T13:30:20;99923.25;;;22.80;50.15
79230;BME280;68663;49.122;17.544;2023-04-03T13:32:46;99912.75;;;22.77;50.16
79230;BME280;68663;49.122;17.544;2023-04-03T13:35:30;99931.69;;;22.77;50.11
79230;BME280;68663;49.122;17.544;2023-04-03T13:37:58;99931.28;;;22.78;50.31
79230;BME280;68663;49.122;17.544;2023-04-03T13:40:25;99936.53;;;22.80;50.01
79230;BME280;68663;49.122;17.544;2023-04-03T13:43:17;99928.06;;;22.80;50.10
79230;BME280;68663;49.122;17.544;2023-04-03T13:45:57;99923.63;;;22.79;49.96
79230;BME280;68663;49.122;17.544;2023-04-03T13:48:23;99918.00;;;22.75;50.03
79230;BME280;68663;49.122;17.544;2023-04-03T13:53:33;99924.03;;;22.70;50.12
79230;BME280;68663;49.122;17.544;2023-04-03T13:56:04;99933.31;;;22.71;50.26
79230;BME280;68663;49.122;17.544;2023-04-03T13:58:30;99924.84;;;22.74;50.16
79230;BME280;68663;49.122;17.544;2023-04-03T14:01:06;99926.84;;;22.77;50.03
79230;BME280;68663;49.122;17.544;2023-04-03T14:03:42;99915.16;;;22.75;49.99
79230;BME280;68663;49.122;17.544;2023-04-03T14:06:10;99916.38;;;22.74;50.14
79230;BME280;68663;49.122;17.544;2023-04-03T14:08:36;99901.50;;;22.70;50.16
79230;BME280;68663;49.122;17.544;2023-04-03T14:11:02;99904.72;;;22.69;49.90
79230;BME280;68663;49.122;17.544;2023-04-03T14:13:29;99903.50;;;22.70;49.95
79230;BME280;68663;49.122;17.544;2023-04-03T14:15:55;99910.75;;;22.71;50.08
79230;BME280;68663;49.122;17.544;2023-04-03T14:18:20;99903.50;;;22.73;50.09
79230;BME280;68663;49.122;17.544;2023-04-03T14:20:46;99916.38;;;22.74;49.87
79230;BME280;68663;49.122;17.544;2023-04-03T14:23:11;99894.25;;;22.73;50.14
79230;BME280;68663;49.122;17.544;2023-04-03T14:25:37;99905.13;;;22.71;50.20
79230;BME280;68663;49.122;17.544;2023-04-03T14:28:06;99904.31;;;22.70;49.97
79230;BME280;68663;49.122;17.544;2023-04-03T14:30:37;99899.88;;;22.69;49.84
79230;BME280;68663;49.122;17.544;2023-04-03T14:33:03;99902.72;;;22.69;50.00
79230;BME280;68663;49.122;17.544;2023-04-03T14:35:28;99901.91;;;22.69;49.83
79230;BME280;68663;49.122;17.544;2023-04-03T14:37:53;99898.28;;;22.65;49.99
79230;BME280;68663;49.122;17.544;2023-04-03T14:40:24;99910.78;;;22.64;50.46